createdAt,value
2018-02-21T00:00:58.280Z,95662.44
2018-02-21T00:02:35.488Z,95721.66
2018-02-21T00:04:12.313Z,95809.37
2018-02-21T00:05:49.615Z,95811.08
2018-02-21T00:07:26.733Z,95810.65
2018-02-21T00:09:03.188Z,95826.18
2018-02-21T00:10:39.557Z,95758.14
2018-02-21T00:12:16.275Z,95730.22
2018-02-21T00:13:54.696Z,95774.98
2018-02-21T00:15:31.456Z,95745.27
2018-02-21T00:17:07.969Z,95718.58
2018-02-21T00:18:44.809Z,95777.56
2018-02-21T00:20:21.790Z,95805.95
2018-02-21T00:22:00.464Z,95691.59
2018-02-21T00:23:37.993Z,95691.55
2018-02-21T00:25:15.240Z,95782.72
2018-02-21T00:26:52.416Z,95800.79
2018-02-21T00:28:29.705Z,95651.63
2018-02-21T00:30:06.280Z,95652.09
2018-02-21T00:31:43.683Z,95591.05
2018-02-21T00:33:21.243Z,95434.78
2018-02-21T00:34:58.691Z,95375.29
2018-02-21T00:36:35.211Z,95447.74
2018-02-21T00:38:12.742Z,95527.61
2018-02-21T00:39:49.721Z,95473.00
2018-02-21T00:41:26.492Z,95493.23
2018-02-21T00:43:03.475Z,95338.79
2018-02-21T00:44:40.835Z,95370.19
2018-02-21T00:46:17.809Z,95493.27
2018-02-21T00:47:55.021Z,95561.08
2018-02-21T00:49:31.425Z,95583.39
2018-02-21T00:51:07.721Z,95603.05
2018-02-21T00:52:44.874Z,95595.90
2018-02-21T00:54:22.005Z,95706.57
2018-02-21T00:55:59.269Z,95734.53
2018-02-21T00:57:36.996Z,95706.57
2018-02-21T00:59:14.185Z,95604.44
2018-02-21T01:00:50.894Z,95597.17
2018-02-21T01:02:27.904Z,95717.35
2018-02-21T01:04:05.446Z,95748.70
2018-02-21T01:05:42.447Z,95704.91
2018-02-21T01:07:19.020Z,95697.13
2018-02-21T01:08:56.241Z,95534.37
2018-02-21T01:10:33.189Z,95377.44
2018-02-21T01:12:10.063Z,95252.27
2018-02-21T01:13:47.720Z,95223.96
2018-02-21T01:15:27.341Z,95218.78
2018-02-21T01:17:03.729Z,95196.09
2018-02-21T01:18:40.598Z,95277.95
2018-02-21T01:20:17.826Z,95218.81
2018-02-21T01:21:54.392Z,95248.45
2018-02-21T01:23:30.888Z,95234.25
2018-02-21T01:25:07.526Z,95225.22
2018-02-21T01:26:43.833Z,95151.08
2018-02-21T01:28:21.324Z,95170.80
2018-02-21T01:29:59.083Z,95316.94
2018-02-21T01:31:36.486Z,95249.15
2018-02-21T01:33:13.602Z,95242.30
2018-02-21T01:34:50.795Z,95238.09
2018-02-21T01:36:27.426Z,95375.25
2018-02-21T01:38:04.229Z,95401.00
2018-02-21T01:39:40.505Z,95378.21
2018-02-21T01:41:16.999Z,95418.09
2018-02-21T01:42:53.470Z,95387.70
2018-02-21T01:44:30.422Z,95418.56
2018-02-21T01:46:08.402Z,95502.64
2018-02-21T01:47:44.677Z,95492.34
2018-02-21T01:49:21.039Z,95661.45
2018-02-21T01:50:58.793Z,95753.86
2018-02-21T01:52:35.206Z,95738.00
2018-02-21T01:54:12.357Z,95773.13
2018-02-21T01:55:48.795Z,95792.93
2018-02-21T01:57:25.473Z,95740.53
2018-02-21T01:59:02.655Z,95760.84
2018-02-21T02:00:40.382Z,95702.80
2018-02-21T02:02:16.909Z,95603.94
2018-02-21T02:03:53.552Z,95691.20
2018-02-21T02:05:29.994Z,95781.95
2018-02-21T02:07:07.039Z,95762.03
2018-02-21T02:08:43.419Z,95743.58
2018-02-21T02:10:20.294Z,95679.53
2018-02-21T02:11:56.638Z,95671.45
2018-02-21T02:13:36.464Z,95646.52
2018-02-21T02:15:18.405Z,95697.17
2018-02-21T02:16:58.453Z,95857.48
2018-02-21T02:18:40.286Z,95869.47
2018-02-21T02:20:19.077Z,95872.16
2018-02-21T02:21:59.493Z,95885.47
2018-02-21T02:23:39.514Z,95895.41
2018-02-21T02:25:17.797Z,95879.10
2018-02-21T02:26:56.985Z,95867.42
2018-02-21T02:28:36.925Z,95909.60
2018-02-21T02:30:15.220Z,95977.98
2018-02-21T02:31:52.058Z,95974.69
2018-02-21T02:33:28.465Z,95911.30
2018-02-21T02:35:05.022Z,95853.27
2018-02-21T02:36:42.743Z,95824.02
2018-02-21T02:38:32.288Z,95763.77
2018-02-21T02:40:09.428Z,95685.23
2018-02-21T02:41:45.971Z,95653.86
2018-02-21T02:43:22.744Z,95703.22
2018-02-21T02:44:59.132Z,95816.77
2018-02-21T02:46:35.878Z,95787.03
2018-02-21T02:48:12.259Z,95826.18
2018-02-21T02:49:50.399Z,95874.32
2018-02-21T02:54:57.700Z,95814.12
2018-02-21T02:56:35.489Z,95820.48
2018-02-21T02:58:12.012Z,95781.37
2018-02-21T02:59:48.575Z,95827.88
2018-02-21T03:01:25.587Z,95793.86
2018-02-21T03:03:02.337Z,95742.16
2018-02-21T03:04:38.859Z,95735.80
2018-02-21T03:06:16.200Z,95767.69
2018-02-21T03:07:52.988Z,95752.05
2018-02-21T03:09:29.733Z,95826.69
2018-02-21T03:11:06.330Z,95806.03
2018-02-21T03:12:43.724Z,95820.55
2018-02-21T03:14:21.033Z,95838.74
2018-02-21T03:15:58.075Z,95839.48
2018-02-21T03:17:34.693Z,95809.37
2018-02-21T03:19:11.391Z,95827.41
2018-02-21T03:20:48.826Z,95753.44
2018-02-21T03:22:25.832Z,95699.75
2018-02-21T03:24:02.359Z,95734.53
2018-02-21T03:25:39.619Z,95786.14
2018-02-21T03:27:16.433Z,95864.84
2018-02-21T03:28:54.079Z,95648.13
2018-02-21T03:30:30.807Z,95682.16
2018-02-21T03:32:08.736Z,95625.80
2018-02-21T03:33:45.226Z,95661.98
2018-02-21T03:35:21.645Z,95749.13
2018-02-21T03:37:04.899Z,95713.46
2018-02-21T03:38:42.410Z,95659.86
2018-02-21T03:40:19.343Z,95626.69
2018-02-21T03:41:56.515Z,95632.30
2018-02-21T03:43:32.917Z,95615.91
2018-02-21T03:45:09.361Z,95603.48
2018-02-21T03:46:46.259Z,95634.03
2018-02-21T03:48:22.748Z,95514.23
2018-02-21T03:49:59.948Z,95578.27
2018-02-21T03:51:37.518Z,95524.48
2018-02-21T03:53:13.898Z,95381.16
2018-02-21T03:54:50.256Z,95356.84
2018-02-21T03:56:27.500Z,95453.78
2018-02-21T03:58:04.290Z,95483.38
2018-02-21T03:59:41.279Z,95449.55
2018-02-21T04:01:17.943Z,95502.27
2018-02-21T04:02:54.552Z,95617.22
2018-02-21T04:04:31.616Z,95524.15
2018-02-21T04:06:08.180Z,95511.30
2018-02-21T04:07:45.687Z,95529.26
2018-02-21T04:09:22.570Z,95556.31
2018-02-21T04:10:59.944Z,95576.05
2018-02-21T04:12:36.714Z,95545.15
2018-02-21T04:14:13.588Z,95674.88
2018-02-21T04:15:50.224Z,95732.80
2018-02-21T04:17:27.529Z,95753.44
2018-02-21T04:19:04.420Z,95727.28
2018-02-21T04:20:41.792Z,95758.14
2018-02-21T04:22:18.587Z,95752.12
2018-02-21T04:23:55.433Z,95755.22
2018-02-21T04:25:31.854Z,95613.30
2018-02-21T04:27:09.771Z,95525.38
2018-02-21T04:28:47.059Z,95555.84
2018-02-21T04:30:25.596Z,95525.84
2018-02-21T04:32:02.112Z,95496.27
2018-02-21T04:33:38.474Z,95567.04
2018-02-21T04:35:14.844Z,95631.80
2018-02-21T04:36:51.920Z,95494.50
2018-02-21T04:38:28.474Z,95434.44
2018-02-21T04:40:05.866Z,95551.19
2018-02-21T04:41:42.332Z,95645.59
2018-02-21T04:43:18.724Z,95512.50
2018-02-21T04:44:55.127Z,95436.13
2018-02-21T04:46:31.794Z,95553.23
2018-02-21T04:48:09.074Z,95541.61
2018-02-21T04:49:46.236Z,95573.04
2018-02-21T04:51:23.392Z,95582.51
2018-02-21T04:52:59.978Z,95545.15
2018-02-21T04:54:36.738Z,95587.23
2018-02-21T04:56:13.237Z,95675.30
2018-02-21T04:57:49.791Z,95491.42
2018-02-21T04:59:27.240Z,95547.34
2018-02-21T05:01:04.339Z,95481.61
2018-02-21T05:02:41.629Z,95377.83
2018-02-21T05:04:18.719Z,95435.41
2018-02-21T05:05:55.069Z,95348.16
2018-02-21T05:07:32.774Z,95381.67
2018-02-21T05:09:10.492Z,95434.44
2018-02-21T05:10:47.058Z,95440.94
2018-02-21T05:12:23.668Z,95552.11
2018-02-21T05:14:00.520Z,95690.86
2018-02-21T05:15:37.111Z,95726.40
2018-02-21T05:17:13.567Z,95599.75
2018-02-21T05:18:49.836Z,95550.73
2018-02-21T05:20:26.578Z,95567.92
2018-02-21T05:22:02.843Z,95622.11
2018-02-21T05:23:39.168Z,95675.73
2018-02-21T05:25:15.736Z,95620.18
2018-02-21T05:26:52.787Z,95814.54
2018-02-21T05:28:29.175Z,95865.84
2018-02-21T05:30:05.708Z,95886.85
2018-02-21T05:31:42.280Z,95893.75
2018-02-21T05:33:19.025Z,95826.27
2018-02-21T05:34:55.292Z,95847.34
2018-02-21T05:36:31.765Z,95854.08
2018-02-21T05:38:08.152Z,95832.73
2018-02-21T05:39:45.064Z,95841.33
2018-02-21T05:41:21.333Z,95878.67
2018-02-21T05:42:58.342Z,95999.19
2018-02-21T05:44:35.408Z,96065.91
2018-02-21T05:46:13.007Z,96062.48
2018-02-21T05:47:49.356Z,96115.52
2018-02-21T05:49:25.678Z,96184.83
2018-02-21T05:51:02.019Z,96287.48
2018-02-21T05:52:38.924Z,96332.30
2018-02-21T05:54:15.249Z,96299.05
2018-02-21T05:55:51.609Z,96244.82
2018-02-21T05:57:28.739Z,96296.53
2018-02-21T05:59:05.513Z,96176.22
2018-02-21T06:00:42.068Z,96055.64
2018-02-21T06:02:18.411Z,96114.70
2018-02-21T06:03:54.709Z,96051.39
2018-02-21T06:05:31.542Z,96201.20
2018-02-21T06:07:07.782Z,96259.93
2018-02-21T06:08:44.958Z,96125.05
2018-02-21T06:10:21.378Z,96103.54
2018-02-21T06:11:57.722Z,96201.32
2018-02-21T06:13:34.388Z,96242.63
2018-02-21T06:15:11.032Z,96250.42
2018-02-21T06:16:47.577Z,96250.89
2018-02-21T06:18:25.056Z,96241.34
2018-02-21T06:20:01.356Z,96230.60
2018-02-21T06:21:37.760Z,96278.02
2018-02-21T06:23:14.952Z,96293.95
2018-02-21T06:24:52.444Z,96245.17
2018-02-21T06:26:29.492Z,96198.55
2018-02-21T06:28:05.878Z,96136.59
2018-02-21T06:29:43.047Z,96129.69
2018-02-21T06:31:20.809Z,96131.46
2018-02-21T06:32:57.136Z,96129.75
2018-02-21T06:34:33.633Z,96096.98
2018-02-21T06:36:10.060Z,96087.48
2018-02-21T06:37:46.867Z,96086.25
2018-02-21T06:39:23.080Z,96058.73
2018-02-21T06:40:59.434Z,96005.29
2018-02-21T06:42:35.965Z,95928.61
2018-02-21T06:44:12.287Z,95891.55
2018-02-21T06:45:48.916Z,95842.17
2018-02-21T06:47:25.245Z,95763.45
2018-02-21T06:49:01.461Z,95671.08
2018-02-21T06:50:39.056Z,95665.91
2018-02-21T06:52:15.409Z,95707.99
2018-02-21T06:53:52.224Z,95688.23
2018-02-21T06:55:28.540Z,95737.65
2018-02-21T06:57:06.109Z,95738.88
2018-02-21T06:58:43.270Z,95732.84
2018-02-21T07:00:19.904Z,95718.31
2018-02-21T07:01:56.520Z,95721.74
2018-02-21T07:03:33.392Z,95776.40
2018-02-21T07:05:09.665Z,95771.70
2018-02-21T07:06:46.758Z,95768.66
2018-02-21T07:08:23.459Z,95781.48
2018-02-21T07:10:00.288Z,95784.48
2018-02-21T07:11:36.830Z,95762.14
2018-02-21T07:13:13.903Z,95749.66
2018-02-21T07:14:51.184Z,95786.69
2018-02-21T07:16:28.032Z,95807.34
2018-02-21T07:18:04.374Z,95827.53
2018-02-21T07:19:40.703Z,95873.59
2018-02-21T07:21:17.793Z,95860.67
2018-02-21T07:22:54.572Z,95806.03
2018-02-21T07:24:30.911Z,95813.77
2018-02-21T07:26:07.237Z,95786.64
2018-02-21T07:27:43.637Z,95708.84
2018-02-21T07:29:20.296Z,95774.23
2018-02-21T07:30:56.802Z,95809.11
2018-02-21T07:32:33.220Z,95831.84
2018-02-21T07:34:09.471Z,95843.98
2018-02-21T07:35:46.169Z,95843.95
2018-02-21T07:37:23.552Z,95871.01
2018-02-21T07:38:59.878Z,95960.12
2018-02-21T07:40:36.286Z,95972.22
2018-02-21T07:42:12.944Z,95840.59
2018-02-21T07:43:50.308Z,95893.52
2018-02-21T07:45:28.199Z,95870.70
2018-02-21T07:47:04.643Z,95702.02
2018-02-21T07:48:41.367Z,95647.13
2018-02-21T07:50:17.899Z,95717.93
2018-02-21T07:51:54.247Z,95695.59
2018-02-21T07:53:30.649Z,95626.49
2018-02-21T07:55:07.987Z,95742.42
2018-02-21T07:56:44.438Z,95752.74
2018-02-21T07:58:20.800Z,95872.39
2018-02-21T07:59:57.190Z,96026.08
2018-02-21T08:01:34.274Z,96159.17
2018-02-21T08:03:10.882Z,96264.75
2018-02-21T08:04:48.375Z,96325.05
2018-02-21T08:06:25.532Z,96348.02
2018-02-21T08:08:02.953Z,96200.01
2018-02-21T08:09:39.393Z,96247.88
2018-02-21T08:11:16.453Z,96204.72
2018-02-21T08:12:53.428Z,96122.84
2018-02-21T08:14:31.495Z,96195.64
2018-02-21T08:16:08.916Z,96231.03
2018-02-21T08:17:45.271Z,96222.38
2018-02-21T08:19:22.473Z,96177.14
2018-02-21T08:20:59.880Z,96149.60
2018-02-21T08:22:36.992Z,96165.13
2018-02-21T08:24:13.312Z,96171.19
2018-02-21T08:25:50.527Z,96215.53
2018-02-21T08:27:28.018Z,96296.22
2018-02-21T08:29:04.857Z,96231.06
2018-02-21T08:30:42.355Z,96232.41
2018-02-21T08:32:18.629Z,96207.77
2018-02-21T08:33:55.236Z,96216.42
2018-02-21T08:35:31.571Z,96270.36
2018-02-21T08:37:08.964Z,96250.46
2018-02-21T08:38:45.281Z,96173.34
2018-02-21T08:40:22.080Z,96159.53
2018-02-21T08:41:58.542Z,96120.34
2018-02-21T08:43:34.961Z,96060.84
2018-02-21T08:45:12.189Z,96116.47
2018-02-21T08:48:42.731Z,96184.48
2018-02-21T08:50:19.065Z,96231.92
2018-02-21T08:51:55.460Z,96226.78
2018-02-21T08:53:32.069Z,96216.42
2018-02-21T08:55:09.073Z,96266.14
2018-02-21T08:56:45.465Z,96333.82
2018-02-21T08:58:21.852Z,96124.23
2018-02-21T08:59:58.167Z,96030.79
2018-02-21T09:01:34.829Z,96132.49
2018-02-21T09:03:11.082Z,96184.52
2018-02-21T09:04:47.933Z,96217.34
2018-02-21T09:06:24.215Z,96209.58
2018-02-21T09:08:00.574Z,96232.41
2018-02-21T09:09:37.435Z,96238.05
2018-02-21T09:11:13.795Z,96064.86
2018-02-21T09:12:50.235Z,95952.47
2018-02-21T09:14:31.372Z,95920.59
2018-02-21T09:16:08.185Z,95855.20
2018-02-21T09:17:45.619Z,95826.41
2018-02-21T09:19:22.042Z,95791.65
2018-02-21T09:20:59.118Z,95833.77
2018-02-21T09:22:35.458Z,96032.09
2018-02-21T09:24:12.567Z,96156.59
2018-02-21T09:25:50.250Z,96276.00
2018-02-21T09:27:27.399Z,96333.29
2018-02-21T09:29:04.309Z,96339.78
2018-02-21T09:30:41.770Z,96352.38
2018-02-21T09:32:18.162Z,96278.16
2018-02-21T09:33:54.639Z,96385.64
2018-02-21T09:35:30.917Z,96346.73
2018-02-21T09:37:09.130Z,96338.08
2018-02-21T09:38:46.073Z,96376.97
2018-02-21T09:40:22.360Z,96445.62
2018-02-21T09:41:59.000Z,96478.02
2018-02-21T09:43:35.470Z,96472.80
2018-02-21T09:45:11.890Z,96449.89
2018-02-21T09:46:50.789Z,96371.33
2018-02-21T09:48:27.900Z,96384.25
2018-02-21T09:50:05.080Z,96429.33
2018-02-21T09:51:41.566Z,96463.27
2018-02-21T09:53:17.982Z,96484.94
2018-02-21T09:54:54.817Z,96519.92
2018-02-21T09:56:31.079Z,96485.75
2018-02-21T09:58:07.403Z,96485.29
2018-02-21T09:59:44.624Z,96467.64
2018-02-21T10:01:21.837Z,96460.75
2018-02-21T10:02:58.150Z,96409.45
2018-02-21T10:04:34.604Z,96282.14
2018-02-21T10:06:11.864Z,96135.08
2018-02-21T10:07:49.689Z,96210.89
2018-02-21T10:09:26.193Z,96310.55
2018-02-21T10:11:02.607Z,96345.50
2018-02-21T10:12:39.771Z,96367.18
2018-02-21T10:14:16.948Z,96273.94
2018-02-21T10:15:54.259Z,96257.56
2018-02-21T10:17:30.582Z,96370.55
2018-02-21T10:19:07.294Z,96371.41
2018-02-21T10:20:43.779Z,96421.95
2018-02-21T10:22:20.108Z,96423.97
2018-02-21T10:23:56.518Z,96336.80
2018-02-21T10:25:33.265Z,96362.32
2018-02-21T10:27:09.769Z,96465.52
2018-02-21T10:28:46.161Z,96456.42
2018-02-21T10:30:24.449Z,96426.67
2018-02-21T10:32:02.190Z,96297.25
2018-02-21T10:33:39.269Z,96424.58
2018-02-21T10:35:15.856Z,96429.23
2018-02-21T10:36:52.410Z,96340.81
2018-02-21T10:38:29.052Z,96295.55
2018-02-21T10:40:05.075Z,96272.67
2018-02-21T10:41:42.177Z,96235.53
2018-02-21T10:43:18.695Z,96203.63
2018-02-21T10:44:55.327Z,96223.05
2018-02-21T10:46:31.727Z,96245.04
2018-02-21T10:48:08.625Z,96261.92
2018-02-21T10:49:47.379Z,96301.61
2018-02-21T10:51:24.069Z,96301.97
2018-02-21T10:53:00.751Z,96314.88
2018-02-21T10:54:37.120Z,96321.02
2018-02-21T10:56:13.523Z,96351.56
2018-02-21T10:57:50.469Z,96361.96
2018-02-21T10:59:26.864Z,96378.78
2018-02-21T11:01:08.242Z,96382.23
2018-02-21T11:02:45.452Z,96436.22
2018-02-21T11:04:21.798Z,96586.55
2018-02-21T11:05:58.214Z,96701.97
2018-02-21T11:07:35.471Z,96768.56
2018-02-21T11:09:11.872Z,96727.90
2018-02-21T11:10:48.768Z,96745.19
2018-02-21T11:12:25.119Z,96820.12
2018-02-21T11:14:01.403Z,96868.13
2018-02-21T11:15:38.674Z,96721.46
2018-02-21T11:17:16.378Z,96745.22
2018-02-21T11:18:53.432Z,96630.65
2018-02-21T11:20:30.749Z,96637.19
2018-02-21T11:22:07.214Z,96714.09
2018-02-21T11:23:44.125Z,96764.29
2018-02-21T11:25:21.282Z,96741.24
2018-02-21T11:26:57.973Z,96638.90
2018-02-21T11:30:15.824Z,96511.86
2018-02-21T11:31:52.786Z,96631.11
2018-02-21T11:33:29.114Z,96603.45
2018-02-21T11:35:06.183Z,96583.95
2018-02-21T11:36:42.989Z,96631.50
2018-02-21T11:38:19.303Z,96602.95
2018-02-21T11:39:55.727Z,96571.37
2018-02-21T11:41:32.935Z,96619.38
2018-02-21T11:43:09.612Z,96596.49
2018-02-21T11:44:46.028Z,96616.36
2018-02-21T11:46:22.576Z,96663.07
2018-02-21T11:48:00.538Z,96728.36
2018-02-21T11:49:37.229Z,96710.19
2018-02-21T11:51:13.843Z,96688.59
2018-02-21T11:52:50.228Z,96589.17
2018-02-21T11:54:26.676Z,96610.81
2018-02-21T11:56:03.133Z,96466.05
2018-02-21T11:57:39.646Z,96575.34
2018-02-21T11:59:16.028Z,96663.95
2018-02-21T12:00:54.401Z,96629.02
2018-02-21T12:02:31.800Z,96598.80
2018-02-21T12:04:08.186Z,96747.53
2018-02-21T12:05:48.522Z,96794.56
2018-02-21T12:07:25.533Z,96853.04
2018-02-21T12:09:02.137Z,96902.78
2018-02-21T12:10:39.187Z,96921.08
2018-02-21T12:12:16.767Z,96926.17
2018-02-21T12:13:53.822Z,96940.92
2018-02-21T12:15:31.102Z,96952.63
2018-02-21T12:17:08.568Z,96921.01
2018-02-21T12:18:44.979Z,96921.44
2018-02-21T12:20:21.847Z,96914.09
2018-02-21T12:21:58.937Z,96861.80
2018-02-21T12:23:36.091Z,96805.42
2018-02-21T12:25:12.373Z,96837.45
2018-02-21T12:26:50.144Z,96776.87
2018-02-21T12:28:27.456Z,96831.50
2018-02-21T12:30:04.581Z,96808.48
2018-02-21T12:31:41.230Z,96835.77
2018-02-21T12:33:17.947Z,96789.48
2018-02-21T12:34:54.578Z,96823.20
2018-02-21T12:36:31.021Z,96683.88
2018-02-21T12:38:07.566Z,96799.94
2018-02-21T12:39:45.562Z,96903.80
2018-02-21T12:41:58.093Z,96959.58
2018-02-21T12:43:34.611Z,96978.17
2018-02-21T12:45:12.499Z,96944.44
2018-02-21T12:46:52.563Z,96928.38
2018-02-21T12:48:29.752Z,96884.22
2018-02-21T12:50:06.994Z,96767.28
2018-02-21T12:51:43.834Z,96820.64
2018-02-21T12:53:20.275Z,96798.91
2018-02-21T12:54:57.609Z,96697.28
2018-02-21T12:56:34.030Z,96651.48
2018-02-21T12:58:10.819Z,96620.80
2018-02-21T12:59:47.166Z,96568.95
2018-02-21T13:01:24.876Z,96558.54
2018-02-21T13:03:01.666Z,96538.64
2018-02-21T13:04:38.951Z,96643.70
2018-02-21T13:06:16.056Z,96810.19
2018-02-21T13:07:53.230Z,96831.89
2018-02-21T13:09:30.394Z,96823.14
2018-02-21T13:11:07.272Z,96895.05
2018-02-21T13:12:43.623Z,96924.95
2018-02-21T13:14:20.186Z,96963.06
2018-02-21T13:15:57.016Z,96959.58
2018-02-21T13:17:33.989Z,97030.69
2018-02-21T13:19:10.622Z,96965.77
2018-02-21T13:20:46.976Z,97041.95
2018-02-21T13:22:23.352Z,97106.14
2018-02-21T13:24:00.028Z,96877.78
2018-02-21T13:25:36.815Z,96907.61
2018-02-21T13:27:14.426Z,96761.27
2018-02-21T13:28:51.031Z,96813.28
2018-02-21T13:30:30.649Z,96901.17
2018-02-21T13:32:07.163Z,96788.16
2018-02-21T13:33:44.245Z,96758.31
2018-02-21T13:35:21.362Z,96815.02
2018-02-21T13:36:58.571Z,96803.31
2018-02-21T13:38:36.793Z,96834.06
2018-02-21T13:40:13.156Z,96827.55
2018-02-21T13:41:50.361Z,96966.95
2018-02-21T13:43:27.979Z,97099.16
2018-02-21T13:45:04.632Z,97100.94
2018-02-21T13:46:41.644Z,97135.59
2018-02-21T13:48:18.081Z,97184.20
2018-02-21T13:49:55.227Z,97154.67
2018-02-21T13:51:31.564Z,97135.59
2018-02-21T13:53:09.021Z,97041.16
2018-02-21T13:54:46.529Z,97107.92
2018-02-21T13:56:23.550Z,97127.88
2018-02-21T13:58:00.228Z,97069.74
2018-02-21T13:59:37.517Z,97024.73
2018-02-21T14:01:15.587Z,96890.38
2018-02-21T14:02:54.295Z,96950.13
2018-02-21T14:04:31.172Z,96895.15
2018-02-21T14:06:08.513Z,96896.92
2018-02-21T14:07:45.753Z,96828.83
2018-02-21T14:09:23.724Z,96764.81
2018-02-21T14:11:00.482Z,96782.18
2018-02-21T14:12:39.308Z,96794.17
2018-02-21T14:14:16.973Z,96803.28
2018-02-21T14:15:55.102Z,96856.62
2018-02-21T14:17:34.400Z,96799.37
2018-02-21T14:19:11.628Z,96940.52
2018-02-21T14:20:48.068Z,96963.95
2018-02-21T14:22:25.004Z,96886.00
2018-02-21T14:24:01.931Z,96861.72
2018-02-21T14:25:39.663Z,96785.95
2018-02-21T14:27:19.096Z,96899.89
2018-02-21T14:28:58.451Z,96900.74
2018-02-21T14:30:37.095Z,96958.36
2018-02-21T14:32:14.304Z,97064.54
2018-02-21T14:33:51.727Z,97056.70
2018-02-21T14:35:28.716Z,96995.09
2018-02-21T14:37:05.919Z,96865.67
2018-02-21T14:38:43.502Z,96819.43
2018-02-21T14:40:22.376Z,96744.86
2018-02-21T14:42:02.024Z,96872.58
2018-02-21T14:43:39.363Z,96917.59
2018-02-21T14:45:18.451Z,96907.26
2018-02-21T14:46:56.504Z,96930.22
2018-02-21T14:48:35.199Z,96881.69
2018-02-21T14:51:56.851Z,96950.46
2018-02-21T14:53:34.565Z,97025.91
2018-02-21T14:55:12.754Z,96994.34
2018-02-21T14:56:51.686Z,97037.24
2018-02-21T14:58:29.053Z,96942.30
2018-02-21T15:00:08.058Z,96963.49
2018-02-21T15:01:45.300Z,97007.73
2018-02-21T15:03:23.695Z,97073.17
2018-02-21T15:05:01.123Z,97005.56
2018-02-21T15:06:37.964Z,96938.34
2018-02-21T15:08:16.667Z,96910.25
2018-02-21T15:09:54.033Z,96898.14
2018-02-21T15:11:32.960Z,96920.25
2018-02-21T15:13:13.080Z,96955.30
2018-02-21T15:14:51.128Z,97022.84
2018-02-21T15:16:28.762Z,96925.31
2018-02-21T15:18:06.015Z,96928.41
2018-02-21T15:19:45.821Z,96998.59
2018-02-21T15:21:24.922Z,97050.22
2018-02-21T15:23:01.564Z,96960.86
2018-02-21T15:24:38.958Z,96762.16
2018-02-21T15:26:15.646Z,96673.52
2018-02-21T15:27:53.457Z,96638.96
2018-02-21T15:29:32.473Z,96785.13
2018-02-21T15:31:12.019Z,96843.92
2018-02-21T15:32:50.097Z,96793.28
2018-02-21T15:34:29.769Z,96814.17
2018-02-21T15:36:07.082Z,96731.84
2018-02-21T15:37:45.429Z,96859.95
2018-02-21T15:39:23.299Z,96917.59
2018-02-21T15:41:02.536Z,96865.18
2018-02-21T15:42:40.107Z,96844.78
2018-02-21T15:44:18.335Z,96834.81
2018-02-21T15:45:56.612Z,96867.74
2018-02-21T15:47:34.461Z,96774.71
2018-02-21T15:49:13.449Z,96738.85
2018-02-21T15:50:54.647Z,96771.30
2018-02-21T15:52:35.250Z,96708.91
2018-02-21T15:54:15.307Z,96715.41
2018-02-21T15:55:54.404Z,96760.84
2018-02-21T15:57:33.080Z,96769.45
2018-02-21T15:59:12.723Z,96843.53
2018-02-21T16:00:51.624Z,96936.61
2018-02-21T16:02:28.198Z,96947.03
2018-02-21T16:04:07.311Z,96987.30
2018-02-21T16:05:47.775Z,96911.50
2018-02-21T16:07:28.124Z,96886.86
2018-02-21T16:09:06.349Z,96899.39
2018-02-21T16:10:44.036Z,96858.73
2018-02-21T16:12:21.630Z,96904.95
2018-02-21T16:14:02.576Z,96904.20
2018-02-21T16:15:41.441Z,96933.61
2018-02-21T16:17:23.211Z,96973.00
2018-02-21T16:19:06.834Z,96973.80
2018-02-21T16:20:48.613Z,96898.44
2018-02-21T16:22:28.685Z,96908.47
2018-02-21T16:24:08.563Z,96916.77
2018-02-21T16:25:49.063Z,96927.92
2018-02-21T16:27:28.004Z,96760.38
2018-02-21T16:29:06.204Z,96705.88
2018-02-21T16:30:46.710Z,96755.25
2018-02-21T16:32:25.651Z,96721.46
2018-02-21T16:34:06.539Z,96790.19
2018-02-21T16:35:45.693Z,96772.97
2018-02-21T16:37:26.296Z,96737.47
2018-02-21T16:39:05.915Z,96783.29
2018-02-21T16:40:45.014Z,96787.13
2018-02-21T16:42:24.607Z,96786.77
2018-02-21T16:44:06.512Z,96712.36
2018-02-21T16:45:47.807Z,96704.96
2018-02-21T16:47:26.335Z,96708.48
2018-02-21T16:49:05.877Z,96719.33
2018-02-21T16:50:44.364Z,96722.78
2018-02-21T16:52:26.130Z,96732.73
2018-02-21T16:54:10.720Z,96795.03
2018-02-21T16:55:54.517Z,96778.13
2018-02-21T16:57:33.182Z,96720.08
2018-02-21T16:59:11.448Z,96717.02
2018-02-21T17:00:51.878Z,96685.55
2018-02-21T17:02:30.912Z,96661.72
2018-02-21T17:04:08.910Z,96669.97
2018-02-21T17:05:46.016Z,96742.59
2018-02-21T17:07:24.794Z,96692.83
2018-02-21T17:09:02.501Z,96692.94
2018-02-21T17:10:39.129Z,96709.34
2018-02-21T17:12:18.013Z,96751.30
2018-02-21T17:13:55.413Z,96710.12
2018-02-21T17:15:35.545Z,96614.23
2018-02-21T17:17:13.795Z,96659.55
2018-02-21T17:18:51.391Z,96723.66
2018-02-21T17:20:29.572Z,96726.19
2018-02-21T17:22:08.167Z,96639.72
2018-02-21T17:23:46.562Z,96706.27
2018-02-21T17:25:29.781Z,96763.73
2018-02-21T17:27:10.097Z,96754.33
2018-02-21T17:28:50.986Z,96695.50
2018-02-21T17:30:33.652Z,96712.78
2018-02-21T17:32:13.589Z,96716.66
2018-02-21T17:33:55.847Z,96794.96
2018-02-21T17:35:37.665Z,96771.63
2018-02-21T17:37:18.391Z,96780.20
2018-02-21T17:39:00.094Z,96764.65
2018-02-21T17:40:43.250Z,96750.42
2018-02-21T17:42:25.339Z,96723.09
2018-02-21T17:44:07.790Z,96719.72
2018-02-21T17:45:47.416Z,96753.83
2018-02-21T17:47:27.520Z,96782.86
2018-02-21T17:49:13.327Z,96733.95
2018-02-21T17:50:52.978Z,96666.91
2018-02-21T17:52:33.287Z,96646.19
2018-02-21T17:54:14.299Z,96654.00
2018-02-21T17:55:54.042Z,96686.79
2018-02-21T17:57:38.378Z,96701.97
2018-02-21T17:59:21.802Z,96669.97
2018-02-21T18:01:01.882Z,96690.31
2018-02-21T18:02:40.322Z,96651.80
2018-02-21T18:04:20.154Z,96579.58
2018-02-21T18:06:01.797Z,96537.75
2018-02-21T18:07:40.683Z,96580.89
2018-02-21T18:09:21.984Z,96588.61
2018-02-21T18:11:01.547Z,96599.91
2018-02-21T18:12:39.712Z,96626.31
2018-02-21T18:14:21.812Z,96585.13
2018-02-21T18:16:04.592Z,96549.80
2018-02-21T18:17:45.948Z,96560.60
2018-02-21T18:19:24.929Z,96541.09
2018-02-21T18:21:04.813Z,96535.91
2018-02-21T18:22:47.641Z,96550.58
2018-02-21T18:24:27.943Z,96548.87
2018-02-21T18:26:14.868Z,96538.47
2018-02-21T18:27:59.190Z,96495.37
2018-02-21T18:29:43.120Z,96539.42
2018-02-21T18:31:25.841Z,96454.30
2018-02-21T18:33:15.496Z,96463.34
2018-02-21T18:34:57.926Z,96516.44
2018-02-21T18:36:39.056Z,96524.76
2018-02-21T18:38:20.961Z,96533.78
2018-02-21T18:40:00.814Z,96495.34
2018-02-21T18:41:43.659Z,96474.64
2018-02-21T18:43:28.479Z,96551.94
2018-02-21T18:45:12.361Z,96502.20
2018-02-21T18:46:59.553Z,96441.76
2018-02-21T18:48:51.385Z,96465.13
2018-02-21T18:50:52.091Z,96404.13
2018-02-21T18:52:47.125Z,96373.56
2018-02-21T18:54:41.680Z,96356.36
2018-02-21T18:56:21.722Z,96323.50
2018-02-21T18:58:03.779Z,96370.91
2018-02-21T18:59:44.962Z,96275.61
2018-02-21T19:01:25.812Z,96340.81
2018-02-21T19:03:07.467Z,96350.67
2018-02-21T19:05:02.896Z,96368.78
2018-02-21T19:06:45.610Z,96341.09
2018-02-21T19:08:27.140Z,96342.06
2018-02-21T19:10:09.302Z,96324.35
2018-02-21T19:11:49.631Z,96306.72
2018-02-21T19:13:29.684Z,96343.80
2018-02-21T19:15:09.774Z,96353.30
2018-02-21T19:16:49.730Z,96268.69
2018-02-21T19:18:32.692Z,96251.84